sensor_id;sensor_type;location;lat;lon;timestamp;P1;durP1;ratioP1;P2;durP2;ratioP2
29382;SDS011;16365;51.598;7.668;2023-01-05T00:01:05;33.78;;;6.57;;
29382;SDS011;16365;51.598;7.668;2023-01-05T00:03:34;38.72;;;6.47;;
29382;SDS011;16365;51.598;7.668;2023-01-05T00:06:02;32.97;;;6.13;;
29382;SDS011;16365;51.598;7.668;2023-01-05T00:08:35;30.27;;;5.25;;
29382;SDS011;16365;51.598;7.668;2023-01-05T00:11:05;34.67;;;5.57;;
29382;SDS011;16365;51.598;7.668;2023-01-05T00:13:53;30.23;;;5.40;;
29382;SDS011;16365;51.598;7.668;2023-01-05T00:16:38;35.58;;;5.65;;
29382;SDS011;16365;51.598;7.668;2023-01-05T00:19:10;35.97;;;6.63;;
29382;SDS011;16365;51.598;7.668;2023-01-05T00:21:56;33.08;;;5.68;;
29382;SDS011;16365;51.598;7.668;2023-01-05T00:24:41;32.42;;;5.35;;
29382;SDS011;16365;51.598;7.668;2023-01-05T00:27:07;26.13;;;5.07;;
29382;SDS011;16365;51.598;7.668;2023-01-05T00:29:34;29.95;;;5.05;;
29382;SDS011;16365;51.598;7.668;2023-01-05T00:32:00;32.90;;;6.13;;
29382;SDS011;16365;51.598;7.668;2023-01-05T00:34:27;25.85;;;4.82;;
29382;SDS011;16365;51.598;7.668;2023-01-05T00:36:53;31.48;;;5.40;;
29382;SDS011;16365;51.598;7.668;2023-01-05T00:39:20;30.55;;;4.63;;
29382;SDS011;16365;51.598;7.668;2023-01-05T00:41:46;30.52;;;5.15;;
29382;SDS011;16365;51.598;7.668;2023-01-05T00:44:13;32.42;;;5.07;;
29382;SDS011;16365;51.598;7.668;2023-01-05T00:46:39;31.30;;;5.00;;
29382;SDS011;16365;51.598;7.668;2023-01-05T00:49:05;30.20;;;5.60;;
29382;SDS011;16365;51.598;7.668;2023-01-05T00:51:32;32.08;;;5.25;;
29382;SDS011;16365;51.598;7.668;2023-01-05T00:53:58;27.77;;;4.75;;
29382;SDS011;16365;51.598;7.668;2023-01-05T00:56:24;34.85;;;4.80;;
29382;SDS011;16365;51.598;7.668;2023-01-05T00:58:52;34.97;;;4.77;;
29382;SDS011;16365;51.598;7.668;2023-01-05T01:01:20;32.00;;;5.07;;
29382;SDS011;16365;51.598;7.668;2023-01-05T01:03:47;31.65;;;5.18;;
29382;SDS011;16365;51.598;7.668;2023-01-05T01:06:14;35.22;;;4.80;;
29382;SDS011;16365;51.598;7.668;2023-01-05T01:08:41;35.90;;;4.95;;
29382;SDS011;16365;51.598;7.668;2023-01-05T01:11:08;29.00;;;6.18;;
29382;SDS011;16365;51.598;7.668;2023-01-05T01:13:35;25.65;;;3.80;;
29382;SDS011;16365;51.598;7.668;2023-01-05T01:18:31;26.63;;;5.57;;
29382;SDS011;16365;51.598;7.668;2023-01-05T01:20:59;32.57;;;5.50;;
29382;SDS011;16365;51.598;7.668;2023-01-05T01:23:25;32.13;;;4.47;;
29382;SDS011;16365;51.598;7.668;2023-01-05T01:25:53;32.92;;;5.55;;
29382;SDS011;16365;51.598;7.668;2023-01-05T01:28:22;31.47;;;5.23;;
29382;SDS011;16365;51.598;7.668;2023-01-05T01:30:50;29.75;;;5.03;;
29382;SDS011;16365;51.598;7.668;2023-01-05T01:33:16;27.38;;;5.55;;
29382;SDS011;16365;51.598;7.668;2023-01-05T01:35:43;22.42;;;4.70;;
29382;SDS011;16365;51.598;7.668;2023-01-05T01:38:09;30.17;;;4.88;;
29382;SDS011;16365;51.598;7.668;2023-01-05T01:40:40;25.65;;;5.18;;
29382;SDS011;16365;51.598;7.668;2023-01-05T01:43:14;32.90;;;5.82;;
29382;SDS011;16365;51.598;7.668;2023-01-05T01:45:42;30.35;;;5.03;;
29382;SDS011;16365;51.598;7.668;2023-01-05T01:48:09;29.02;;;5.97;;
29382;SDS011;16365;51.598;7.668;2023-01-05T01:50:40;30.17;;;5.63;;
29382;SDS011;16365;51.598;7.668;2023-01-05T01:53:16;30.58;;;5.30;;
29382;SDS011;16365;51.598;7.668;2023-01-05T01:55:47;33.00;;;6.65;;
29382;SDS011;16365;51.598;7.668;2023-01-05T01:58:16;29.05;;;5.50;;
29382;SDS011;16365;51.598;7.668;2023-01-05T02:00:44;32.92;;;5.28;;
29382;SDS011;16365;51.598;7.668;2023-01-05T02:03:12;34.20;;;5.60;;
29382;SDS011;16365;51.598;7.668;2023-01-05T02:05:39;33.40;;;5.57;;
29382;SDS011;16365;51.598;7.668;2023-01-05T02:08:12;33.25;;;6.95;;
29382;SDS011;16365;51.598;7.668;2023-01-05T02:18:52;37.28;;;5.85;;
29382;SDS011;16365;51.598;7.668;2023-01-05T02:21:38;33.47;;;5.03;;
29382;SDS011;16365;51.598;7.668;2023-01-05T02:32:46;33.70;;;5.68;;
29382;SDS011;16365;51.598;7.668;2023-01-05T02:38:32;31.90;;;5.32;;
29382;SDS011;16365;51.598;7.668;2023-01-05T02:41:09;33.10;;;5.15;;
29382;SDS011;16365;51.598;7.668;2023-01-05T02:43:44;34.80;;;5.20;;
29382;SDS011;16365;51.598;7.668;2023-01-05T02:46:10;27.00;;;4.85;;
29382;SDS011;16365;51.598;7.668;2023-01-05T02:48:37;33.97;;;5.55;;
29382;SDS011;16365;51.598;7.668;2023-01-05T02:51:06;33.13;;;5.70;;
29382;SDS011;16365;51.598;7.668;2023-01-05T02:53:39;26.88;;;5.50;;
29382;SDS011;16365;51.598;7.668;2023-01-05T02:56:12;27.70;;;4.85;;
29382;SDS011;16365;51.598;7.668;2023-01-05T02:58:45;30.90;;;5.68;;
29382;SDS011;16365;51.598;7.668;2023-01-05T03:01:41;33.50;;;6.05;;
29382;SDS011;16365;51.598;7.668;2023-01-05T03:04:19;31.50;;;5.80;;
29382;SDS011;16365;51.598;7.668;2023-01-05T03:07:02;29.02;;;5.15;;
29382;SDS011;16365;51.598;7.668;2023-01-05T03:09:33;27.65;;;6.03;;
29382;SDS011;16365;51.598;7.668;2023-01-05T03:12:07;26.42;;;5.20;;
29382;SDS011;16365;51.598;7.668;2023-01-05T03:15:02;23.40;;;4.13;;
29382;SDS011;16365;51.598;7.668;2023-01-05T03:17:38;25.98;;;4.43;;
29382;SDS011;16365;51.598;7.668;2023-01-05T03:20:10;23.85;;;5.07;;
29382;SDS011;16365;51.598;7.668;2023-01-05T03:22:38;22.88;;;4.15;;
29382;SDS011;16365;51.598;7.668;2023-01-05T03:25:26;34.45;;;4.65;;
29382;SDS011;16365;51.598;7.668;2023-01-05T03:31:28;32.83;;;5.20;;
29382;SDS011;16365;51.598;7.668;2023-01-05T03:37:23;27.08;;;4.30;;
29382;SDS011;16365;51.598;7.668;2023-01-05T03:39:54;25.65;;;4.32;;
29382;SDS011;16365;51.598;7.668;2023-01-05T03:42:20;25.80;;;4.22;;
29382;SDS011;16365;51.598;7.668;2023-01-05T03:44:48;25.08;;;4.05;;
29382;SDS011;16365;51.598;7.668;2023-01-05T03:47:14;35.10;;;5.60;;
29382;SDS011;16365;51.598;7.668;2023-01-05T03:49:41;23.40;;;4.28;;
29382;SDS011;16365;51.598;7.668;2023-01-05T03:52:07;33.85;;;6.22;;
29382;SDS011;16365;51.598;7.668;2023-01-05T03:54:34;33.40;;;5.43;;
29382;SDS011;16365;51.598;7.668;2023-01-05T03:57:00;27.88;;;4.72;;
29382;SDS011;16365;51.598;7.668;2023-01-05T03:59:27;31.10;;;5.57;;
29382;SDS011;16365;51.598;7.668;2023-01-05T04:01:53;24.48;;;4.78;;
29382;SDS011;16365;51.598;7.668;2023-01-05T04:04:20;29.92;;;4.97;;
29382;SDS011;16365;51.598;7.668;2023-01-05T04:06:46;32.58;;;5.32;;
29382;SDS011;16365;51.598;7.668;2023-01-05T04:09:13;22.33;;;3.85;;
29382;SDS011;16365;51.598;7.668;2023-01-05T04:11:39;29.73;;;4.82;;
29382;SDS011;16365;51.598;7.668;2023-01-05T04:14:06;28.65;;;4.93;;
29382;SDS011;16365;51.598;7.668;2023-01-05T04:16:32;33.08;;;5.68;;
29382;SDS011;16365;51.598;7.668;2023-01-05T04:18:59;29.80;;;5.93;;
29382;SDS011;16365;51.598;7.668;2023-01-05T04:21:25;30.05;;;5.28;;
29382;SDS011;16365;51.598;7.668;2023-01-05T04:23:52;26.85;;;5.43;;
29382;SDS011;16365;51.598;7.668;2023-01-05T04:26:18;37.88;;;6.00;;
29382;SDS011;16365;51.598;7.668;2023-01-05T04:28:45;33.58;;;5.57;;
29382;SDS011;16365;51.598;7.668;2023-01-05T04:31:11;30.52;;;6.45;;
29382;SDS011;16365;51.598;7.668;2023-01-05T04:33:38;25.33;;;4.78;;
29382;SDS011;16365;51.598;7.668;2023-01-05T04:36:05;30.60;;;5.75;;
29382;SDS011;16365;51.598;7.668;2023-01-05T04:38:33;30.05;;;6.70;;
29382;SDS011;16365;51.598;7.668;2023-01-05T04:40:59;35.65;;;6.10;;
29382;SDS011;16365;51.598;7.668;2023-01-05T04:43:26;29.73;;;5.40;;
29382;SDS011;16365;51.598;7.668;2023-01-05T04:45:52;36.75;;;5.75;;
29382;SDS011;16365;51.598;7.668;2023-01-05T04:48:18;29.60;;;5.30;;
29382;SDS011;16365;51.598;7.668;2023-01-05T04:50:50;27.50;;;5.60;;
29382;SDS011;16365;51.598;7.668;2023-01-05T04:53:17;40.67;;;6.43;;
29382;SDS011;16365;51.598;7.668;2023-01-05T04:55:44;28.33;;;5.90;;
29382;SDS011;16365;51.598;7.668;2023-01-05T04:58:11;32.90;;;5.43;;
29382;SDS011;16365;51.598;7.668;2023-01-05T05:00:37;28.10;;;5.25;;
29382;SDS011;16365;51.598;7.668;2023-01-05T05:03:04;31.70;;;5.82;;
29382;SDS011;16365;51.598;7.668;2023-01-05T05:05:31;29.63;;;6.10;;
29382;SDS011;16365;51.598;7.668;2023-01-05T05:07:57;30.77;;;5.78;;
29382;SDS011;16365;51.598;7.668;2023-01-05T05:10:23;30.88;;;5.93;;
29382;SDS011;16365;51.598;7.668;2023-01-05T05:12:50;29.20;;;5.88;;
29382;SDS011;16365;51.598;7.668;2023-01-05T05:15:17;30.45;;;5.57;;
29382;SDS011;16365;51.598;7.668;2023-01-05T05:17:43;29.38;;;5.50;;
29382;SDS011;16365;51.598;7.668;2023-01-05T05:20:10;36.47;;;6.07;;
29382;SDS011;16365;51.598;7.668;2023-01-05T05:22:37;36.85;;;5.93;;
29382;SDS011;16365;51.598;7.668;2023-01-05T05:25:03;29.77;;;5.43;;
29382;SDS011;16365;51.598;7.668;2023-01-05T05:27:30;41.53;;;6.22;;
29382;SDS011;16365;51.598;7.668;2023-01-05T05:29:56;28.55;;;5.82;;
29382;SDS011;16365;51.598;7.668;2023-01-05T05:32:23;38.42;;;6.03;;
29382;SDS011;16365;51.598;7.668;2023-01-05T05:34:49;29.90;;;5.07;;
29382;SDS011;16365;51.598;7.668;2023-01-05T05:37:16;31.25;;;5.88;;
29382;SDS011;16365;51.598;7.668;2023-01-05T05:39:42;38.33;;;6.40;;
29382;SDS011;16365;51.598;7.668;2023-01-05T05:42:09;40.22;;;5.88;;
29382;SDS011;16365;51.598;7.668;2023-01-05T05:44:35;26.70;;;5.43;;
29382;SDS011;16365;51.598;7.668;2023-01-05T05:47:01;35.78;;;5.20;;
29382;SDS011;16365;51.598;7.668;2023-01-05T05:49:28;35.10;;;6.28;;
29382;SDS011;16365;51.598;7.668;2023-01-05T05:51:54;31.20;;;5.22;;
29382;SDS011;16365;51.598;7.668;2023-01-05T05:54:21;30.63;;;7.05;;
29382;SDS011;16365;51.598;7.668;2023-01-05T05:56:47;33.38;;;5.35;;
29382;SDS011;16365;51.598;7.668;2023-01-05T05:59:14;40.85;;;7.10;;
29382;SDS011;16365;51.598;7.668;2023-01-05T06:01:40;36.50;;;5.55;;
29382;SDS011;16365;51.598;7.668;2023-01-05T06:04:07;32.88;;;5.60;;
29382;SDS011;16365;51.598;7.668;2023-01-05T06:06:33;28.42;;;5.43;;
29382;SDS011;16365;51.598;7.668;2023-01-05T06:08:59;37.67;;;6.07;;
29382;SDS011;16365;51.598;7.668;2023-01-05T06:11:26;29.23;;;5.93;;
29382;SDS011;16365;51.598;7.668;2023-01-05T06:13:52;35.88;;;6.45;;
29382;SDS011;16365;51.598;7.668;2023-01-05T06:16:19;35.28;;;5.60;;
29382;SDS011;16365;51.598;7.668;2023-01-05T06:18:45;34.38;;;6.28;;
29382;SDS011;16365;51.598;7.668;2023-01-05T06:21:12;34.53;;;6.13;;
29382;SDS011;16365;51.598;7.668;2023-01-05T06:23:39;30.38;;;5.88;;
29382;SDS011;16365;51.598;7.668;2023-01-05T06:26:06;34.25;;;7.35;;
29382;SDS011;16365;51.598;7.668;2023-01-05T06:28:33;33.20;;;5.78;;
29382;SDS011;16365;51.598;7.668;2023-01-05T06:30:59;28.52;;;6.07;;
29382;SDS011;16365;51.598;7.668;2023-01-05T06:33:25;27.92;;;5.22;;
29382;SDS011;16365;51.598;7.668;2023-01-05T06:35:52;33.30;;;6.05;;
29382;SDS011;16365;51.598;7.668;2023-01-05T06:38:18;30.48;;;6.13;;
29382;SDS011;16365;51.598;7.668;2023-01-05T06:40:46;25.38;;;5.65;;
29382;SDS011;16365;51.598;7.668;2023-01-05T06:43:13;25.15;;;6.13;;
29382;SDS011;16365;51.598;7.668;2023-01-05T06:45:39;26.73;;;5.60;;
29382;SDS011;16365;51.598;7.668;2023-01-05T06:48:06;32.63;;;6.50;;
29382;SDS011;16365;51.598;7.668;2023-01-05T06:50:32;31.52;;;5.43;;
29382;SDS011;16365;51.598;7.668;2023-01-05T06:52:59;27.55;;;6.03;;
29382;SDS011;16365;51.598;7.668;2023-01-05T06:55:25;28.63;;;6.35;;
29382;SDS011;16365;51.598;7.668;2023-01-05T06:57:51;28.90;;;6.50;;
29382;SDS011;16365;51.598;7.668;2023-01-05T07:00:25;24.80;;;5.78;;
29382;SDS011;16365;51.598;7.668;2023-01-05T07:02:52;30.40;;;6.18;;
29382;SDS011;16365;51.598;7.668;2023-01-05T07:05:18;24.73;;;6.13;;
29382;SDS011;16365;51.598;7.668;2023-01-05T07:07:44;25.92;;;6.97;;
29382;SDS011;16365;51.598;7.668;2023-01-05T07:10:11;33.90;;;6.30;;
29382;SDS011;16365;51.598;7.668;2023-01-05T07:12:37;29.48;;;7.07;;
29382;SDS011;16365;51.598;7.668;2023-01-05T07:15:04;32.67;;;6.50;;
29382;SDS011;16365;51.598;7.668;2023-01-05T07:17:31;27.35;;;6.47;;
29382;SDS011;16365;51.598;7.668;2023-01-05T07:19:58;27.58;;;5.80;;
29382;SDS011;16365;51.598;7.668;2023-01-05T07:22:24;35.25;;;8.00;;
29382;SDS011;16365;51.598;7.668;2023-01-05T07:27:19;33.80;;;7.38;;
29382;SDS011;16365;51.598;7.668;2023-01-05T07:29:45;32.10;;;7.07;;
29382;SDS011;16365;51.598;7.668;2023-01-05T07:32:12;26.55;;;6.32;;
29382;SDS011;16365;51.598;7.668;2023-01-05T07:34:39;26.88;;;6.45;;
29382;SDS011;16365;51.598;7.668;2023-01-05T07:37:06;28.05;;;7.63;;
29382;SDS011;16365;51.598;7.668;2023-01-05T07:39:32;28.08;;;7.95;;
29382;SDS011;16365;51.598;7.668;2023-01-05T07:41:59;37.83;;;7.95;;
29382;SDS011;16365;51.598;7.668;2023-01-05T07:44:25;27.92;;;8.13;;
29382;SDS011;16365;51.598;7.668;2023-01-05T07:46:52;27.45;;;8.05;;
29382;SDS011;16365;51.598;7.668;2023-01-05T07:49:19;29.98;;;8.73;;
29382;SDS011;16365;51.598;7.668;2023-01-05T07:51:45;31.33;;;9.45;;
29382;SDS011;16365;51.598;7.668;2023-01-05T07:54:12;39.05;;;9.88;;
29382;SDS011;16365;51.598;7.668;2023-01-05T07:56:38;30.45;;;9.27;;
29382;SDS011;16365;51.598;7.668;2023-01-05T07:59:05;41.58;;;10.65;;
29382;SDS011;16365;51.598;7.668;2023-01-05T08:01:31;32.28;;;9.35;;
29382;SDS011;16365;51.598;7.668;2023-01-05T08:03:58;28.90;;;8.70;;
29382;SDS011;16365;51.598;7.668;2023-01-05T08:06:24;32.53;;;8.98;;
29382;SDS011;16365;51.598;7.668;2023-01-05T08:08:50;28.42;;;8.93;;
29382;SDS011;16365;51.598;7.668;2023-01-05T08:11:17;27.77;;;8.65;;
29382;SDS011;16365;51.598;7.668;2023-01-05T08:13:46;29.15;;;8.30;;
29382;SDS011;16365;51.598;7.668;2023-01-05T08:16:25;29.70;;;8.77;;
29382;SDS011;16365;51.598;7.668;2023-01-05T08:18:53;30.15;;;8.43;;
29382;SDS011;16365;51.598;7.668;2023-01-05T08:21:19;33.45;;;10.10;;
29382;SDS011;16365;51.598;7.668;2023-01-05T08:23:46;34.90;;;9.85;;
29382;SDS011;16365;51.598;7.668;2023-01-05T08:26:13;37.25;;;10.23;;
29382;SDS011;16365;51.598;7.668;2023-01-05T08:28:42;39.95;;;9.43;;
29382;SDS011;16365;51.598;7.668;2023-01-05T08:31:10;25.88;;;9.13;;
29382;SDS011;16365;51.598;7.668;2023-01-05T08:33:42;28.42;;;8.63;;
29382;SDS011;16365;51.598;7.668;2023-01-05T08:36:10;34.75;;;9.55;;
29382;SDS011;16365;51.598;7.668;2023-01-05T08:38:38;26.55;;;8.75;;
29382;SDS011;16365;51.598;7.668;2023-01-05T08:41:14;29.92;;;8.82;;
29382;SDS011;16365;51.598;7.668;2023-01-05T08:43:42;33.83;;;8.98;;
29382;SDS011;16365;51.598;7.668;2023-01-05T08:46:08;24.15;;;8.55;;
29382;SDS011;16365;51.598;7.668;2023-01-05T08:48:35;34.65;;;7.85;;
29382;SDS011;16365;51.598;7.668;2023-01-05T08:51:01;30.00;;;7.88;;
29382;SDS011;16365;51.598;7.668;2023-01-05T08:53:33;32.03;;;7.43;;
29382;SDS011;16365;51.598;7.668;2023-01-05T08:56:00;45.40;;;9.20;;
29382;SDS011;16365;51.598;7.668;2023-01-05T08:58:27;32.75;;;7.25;;
29382;SDS011;16365;51.598;7.668;2023-01-05T09:00:53;33.35;;;7.40;;
29382;SDS011;16365;51.598;7.668;2023-01-05T09:03:20;29.73;;;8.60;;
29382;SDS011;16365;51.598;7.668;2023-01-05T09:05:47;35.15;;;8.43;;
29382;SDS011;16365;51.598;7.668;2023-01-05T09:08:13;33.25;;;9.30;;
29382;SDS011;16365;51.598;7.668;2023-01-05T09:10:40;41.83;;;9.30;;
29382;SDS011;16365;51.598;7.668;2023-01-05T09:13:06;34.05;;;9.65;;
29382;SDS011;16365;51.598;7.668;2023-01-05T09:15:33;37.42;;;10.07;;
29382;SDS011;16365;51.598;7.668;2023-01-05T09:18:00;30.02;;;9.20;;
29382;SDS011;16365;51.598;7.668;2023-01-05T09:20:26;47.38;;;10.85;;
29382;SDS011;16365;51.598;7.668;2023-01-05T09:22:53;41.10;;;10.07;;
29382;SDS011;16365;51.598;7.668;2023-01-05T09:25:20;36.67;;;10.55;;
29382;SDS011;16365;51.598;7.668;2023-01-05T09:27:46;37.55;;;10.45;;
29382;SDS011;16365;51.598;7.668;2023-01-05T09:30:13;36.80;;;9.65;;
29382;SDS011;16365;51.598;7.668;2023-01-05T09:32:41;84.40;;;13.63;;
29382;SDS011;16365;51.598;7.668;2023-01-05T09:35:07;42.58;;;10.82;;
29382;SDS011;16365;51.598;7.668;2023-01-05T09:37:34;41.45;;;10.77;;
29382;SDS011;16365;51.598;7.668;2023-01-05T09:40:00;38.33;;;10.52;;
29382;SDS011;16365;51.598;7.668;2023-01-05T09:42:27;38.60;;;10.50;;
29382;SDS011;16365;51.598;7.668;2023-01-05T09:44:59;51.92;;;11.43;;
29382;SDS011;16365;51.598;7.668;2023-01-05T09:47:38;37.88;;;10.40;;
29382;SDS011;16365;51.598;7.668;2023-01-05T09:50:15;52.58;;;11.77;;
29382;SDS011;16365;51.598;7.668;2023-01-05T09:52:48;45.47;;;10.32;;
29382;SDS011;16365;51.598;7.668;2023-01-05T09:55:20;56.33;;;11.32;;
29382;SDS011;16365;51.598;7.668;2023-01-05T09:57:51;35.00;;;9.40;;
29382;SDS011;16365;51.598;7.668;2023-01-05T10:00:19;44.33;;;9.88;;
29382;SDS011;16365;51.598;7.668;2023-01-05T10:02:50;42.50;;;9.23;;
29382;SDS011;16365;51.598;7.668;2023-01-05T10:05:20;42.95;;;9.80;;
29382;SDS011;16365;51.598;7.668;2023-01-05T10:07:52;52.17;;;10.03;;
29382;SDS011;16365;51.598;7.668;2023-01-05T10:10:31;34.47;;;8.10;;
29382;SDS011;16365;51.598;7.668;2023-01-05T10:13:16;43.92;;;9.40;;
29382;SDS011;16365;51.598;7.668;2023-01-05T10:15:49;38.15;;;8.10;;
29382;SDS011;16365;51.598;7.668;2023-01-05T10:18:23;45.30;;;9.02;;
29382;SDS011;16365;51.598;7.668;2023-01-05T10:21:11;44.08;;;8.73;;
29382;SDS011;16365;51.598;7.668;2023-01-05T10:24:08;41.88;;;8.90;;
29382;SDS011;16365;51.598;7.668;2023-01-05T10:29:44;40.58;;;9.35;;
29382;SDS011;16365;51.598;7.668;2023-01-05T10:32:21;36.95;;;9.80;;
29382;SDS011;16365;51.598;7.668;2023-01-05T10:34:56;42.25;;;9.45;;
29382;SDS011;16365;51.598;7.668;2023-01-05T10:40:48;41.95;;;8.25;;
29382;SDS011;16365;51.598;7.668;2023-01-05T10:46:21;37.30;;;7.05;;
29382;SDS011;16365;51.598;7.668;2023-01-05T10:49:03;43.67;;;7.95;;
29382;SDS011;16365;51.598;7.668;2023-01-05T10:54:01;29.77;;;6.35;;
29382;SDS011;16365;51.598;7.668;2023-01-05T10:56:28;31.73;;;6.75;;
29382;SDS011;16365;51.598;7.668;2023-01-05T10:59:06;37.85;;;6.63;;
29382;SDS011;16365;51.598;7.668;2023-01-05T11:01:37;37.95;;;6.90;;
29382;SDS011;16365;51.598;7.668;2023-01-05T11:04:14;35.75;;;7.80;;
29382;SDS011;16365;51.598;7.668;2023-01-05T11:07:03;44.47;;;7.47;;
29382;SDS011;16365;51.598;7.668;2023-01-05T11:09:32;38.33;;;6.68;;
29382;SDS011;16365;51.598;7.668;2023-01-05T11:12:05;32.88;;;6.63;;
29382;SDS011;16365;51.598;7.668;2023-01-05T11:14:41;40.78;;;7.00;;
29382;SDS011;16365;51.598;7.668;2023-01-05T11:17:15;33.28;;;7.47;;
29382;SDS011;16365;51.598;7.668;2023-01-05T11:19:45;38.30;;;7.05;;
29382;SDS011;16365;51.598;7.668;2023-01-05T11:22:26;36.78;;;7.53;;
29382;SDS011;16365;51.598;7.668;2023-01-05T11:29:46;33.90;;;7.50;;
29382;SDS011;16365;51.598;7.668;2023-01-05T11:32:41;38.92;;;6.80;;
29382;SDS011;16365;51.598;7.668;2023-01-05T11:35:20;34.20;;;6.75;;
29382;SDS011;16365;51.598;7.668;2023-01-05T11:37:55;26.95;;;6.47;;
29382;SDS011;16365;51.598;7.668;2023-01-05T11:40:25;34.30;;;5.75;;
29382;SDS011;16365;51.598;7.668;2023-01-05T11:42:54;37.25;;;5.95;;
29382;SDS011;16365;51.598;7.668;2023-01-05T11:45:22;32.08;;;5.55;;
29382;SDS011;16365;51.598;7.668;2023-01-05T11:50:25;34.22;;;6.25;;
29382;SDS011;16365;51.598;7.668;2023-01-05T11:52:54;35.50;;;5.20;;
29382;SDS011;16365;51.598;7.668;2023-01-05T11:55:36;29.63;;;6.47;;
29382;SDS011;16365;51.598;7.668;2023-01-05T11:58:13;28.83;;;6.68;;
29382;SDS011;16365;51.598;7.668;2023-01-05T12:06:44;33.10;;;5.93;;
29382;SDS011;16365;51.598;7.668;2023-01-05T12:09:27;37.13;;;6.53;;
29382;SDS011;16365;51.598;7.668;2023-01-05T12:15:11;25.30;;;5.65;;
29382;SDS011;16365;51.598;7.668;2023-01-05T12:26:12;32.22;;;5.78;;
29382;SDS011;16365;51.598;7.668;2023-01-05T12:40:42;36.22;;;6.53;;
29382;SDS011;16365;51.598;7.668;2023-01-05T12:46:37;26.80;;;6.45;;
29382;SDS011;16365;51.598;7.668;2023-01-05T12:49:26;21.77;;;5.80;;
29382;SDS011;16365;51.598;7.668;2023-01-05T12:57:40;33.67;;;7.63;;
29382;SDS011;16365;51.598;7.668;2023-01-05T13:00:11;29.15;;;5.75;;
29382;SDS011;16365;51.598;7.668;2023-01-05T13:02:41;35.47;;;6.05;;
29382;SDS011;16365;51.598;7.668;2023-01-05T13:05:33;27.15;;;6.00;;
29382;SDS011;16365;51.598;7.668;2023-01-05T13:13:48;31.67;;;5.88;;
29382;SDS011;16365;51.598;7.668;2023-01-05T13:19:09;23.67;;;5.70;;
29382;SDS011;16365;51.598;7.668;2023-01-05T13:21:39;26.75;;;4.95;;
29382;SDS011;16365;51.598;7.668;2023-01-05T13:24:10;22.00;;;4.63;;
29382;SDS011;16365;51.598;7.668;2023-01-05T13:26:48;26.35;;;5.25;;
29382;SDS011;16365;51.598;7.668;2023-01-05T13:29:19;26.23;;;5.32;;
29382;SDS011;16365;51.598;7.668;2023-01-05T13:43:03;26.65;;;5.30;;
29382;SDS011;16365;51.598;7.668;2023-01-05T13:45:51;28.13;;;5.32;;
29382;SDS011;16365;51.598;7.668;2023-01-05T13:51:52;29.80;;;10.40;;
29382;SDS011;16365;51.598;7.668;2023-01-05T13:57:23;26.77;;;8.95;;
29382;SDS011;16365;51.598;7.668;2023-01-05T14:00:02;38.60;;;9.82;;
29382;SDS011;16365;51.598;7.668;2023-01-05T14:03:06;37.40;;;10.65;;
29382;SDS011;16365;51.598;7.668;2023-01-05T14:05:51;27.95;;;8.45;;
29382;SDS011;16365;51.598;7.668;2023-01-05T14:13:41;29.58;;;7.20;;
29382;SDS011;16365;51.598;7.668;2023-01-05T14:21:59;32.17;;;7.30;;
29382;SDS011;16365;51.598;7.668;2023-01-05T14:27:38;41.77;;;12.17;;
29382;SDS011;16365;51.598;7.668;2023-01-05T14:32:26;42.55;;;9.20;;
29382;SDS011;16365;51.598;7.668;2023-01-05T14:40:35;34.03;;;7.85;;
29382;SDS011;16365;51.598;7.668;2023-01-05T14:45:59;35.42;;;9.93;;
29382;SDS011;16365;51.598;7.668;2023-01-05T14:48:38;36.05;;;8.30;;
29382;SDS011;16365;51.598;7.668;2023-01-05T14:53:42;25.77;;;7.75;;
29382;SDS011;16365;51.598;7.668;2023-01-05T15:01:20;30.50;;;6.50;;
29382;SDS011;16365;51.598;7.668;2023-01-05T15:04:19;32.95;;;7.22;;
29382;SDS011;16365;51.598;7.668;2023-01-05T15:10:05;27.58;;;6.18;;
29382;SDS011;16365;51.598;7.668;2023-01-05T15:15:23;33.55;;;6.60;;
29382;SDS011;16365;51.598;7.668;2023-01-05T15:26:34;25.50;;;6.70;;
29382;SDS011;16365;51.598;7.668;2023-01-05T15:29:39;23.73;;;7.25;;
29382;SDS011;16365;51.598;7.668;2023-01-05T15:32:31;31.85;;;7.57;;
29382;SDS011;16365;51.598;7.668;2023-01-05T15:35:03;32.80;;;8.30;;
29382;SDS011;16365;51.598;7.668;2023-01-05T15:37:40;34.47;;;7.97;;
29382;SDS011;16365;51.598;7.668;2023-01-05T15:42:41;32.50;;;6.45;;
29382;SDS011;16365;51.598;7.668;2023-01-05T15:47:44;26.48;;;7.32;;
29382;SDS011;16365;51.598;7.668;2023-01-05T15:50:16;31.30;;;7.25;;
29382;SDS011;16365;51.598;7.668;2023-01-05T15:52:54;36.80;;;8.90;;
29382;SDS011;16365;51.598;7.668;2023-01-05T15:55:23;37.15;;;8.27;;
29382;SDS011;16365;51.598;7.668;2023-01-05T15:57:58;32.10;;;8.37;;
29382;SDS011;16365;51.598;7.668;2023-01-05T16:00:30;28.13;;;7.55;;
29382;SDS011;16365;51.598;7.668;2023-01-05T16:03:01;36.40;;;8.57;;
29382;SDS011;16365;51.598;7.668;2023-01-05T16:05:43;28.80;;;7.70;;
29382;SDS011;16365;51.598;7.668;2023-01-05T16:08:13;32.47;;;8.90;;
29382;SDS011;16365;51.598;7.668;2023-01-05T16:10:49;36.63;;;8.52;;
29382;SDS011;16365;51.598;7.668;2023-01-05T16:13:28;35.88;;;10.50;;
29382;SDS011;16365;51.598;7.668;2023-01-05T16:16:26;29.70;;;8.82;;
29382;SDS011;16365;51.598;7.668;2023-01-05T16:19:39;29.10;;;7.55;;
29382;SDS011;16365;51.598;7.668;2023-01-05T16:22:14;33.70;;;8.65;;
29382;SDS011;16365;51.598;7.668;2023-01-05T16:25:04;32.03;;;8.95;;
29382;SDS011;16365;51.598;7.668;2023-01-05T16:27:33;40.05;;;9.57;;
29382;SDS011;16365;51.598;7.668;2023-01-05T16:30:38;33.55;;;7.47;;
29382;SDS011;16365;51.598;7.668;2023-01-05T16:35:51;35.42;;;9.63;;
29382;SDS011;16365;51.598;7.668;2023-01-05T16:38:39;38.53;;;9.38;;
29382;SDS011;16365;51.598;7.668;2023-01-05T16:41:22;30.17;;;9.43;;
29382;SDS011;16365;51.598;7.668;2023-01-05T16:43:56;31.63;;;9.18;;
29382;SDS011;16365;51.598;7.668;2023-01-05T16:46:43;30.35;;;12.15;;
29382;SDS011;16365;51.598;7.668;2023-01-05T16:49:26;30.90;;;12.05;;
29382;SDS011;16365;51.598;7.668;2023-01-05T16:51:58;29.70;;;10.70;;
29382;SDS011;16365;51.598;7.668;2023-01-05T16:54:30;35.30;;;9.48;;
29382;SDS011;16365;51.598;7.668;2023-01-05T17:02:56;30.80;;;8.48;;
29382;SDS011;16365;51.598;7.668;2023-01-05T17:05:43;30.42;;;8.25;;
29382;SDS011;16365;51.598;7.668;2023-01-05T17:08:20;27.40;;;7.18;;
29382;SDS011;16365;51.598;7.668;2023-01-05T17:10:53;30.55;;;9.05;;
29382;SDS011;16365;51.598;7.668;2023-01-05T17:13:23;29.70;;;8.02;;
29382;SDS011;16365;51.598;7.668;2023-01-05T17:15:53;31.80;;;9.80;;
29382;SDS011;16365;51.598;7.668;2023-01-05T17:18:27;31.83;;;8.50;;
29382;SDS011;16365;51.598;7.668;2023-01-05T17:21:03;32.47;;;7.45;;
29382;SDS011;16365;51.598;7.668;2023-01-05T17:23:33;32.20;;;7.97;;
29382;SDS011;16365;51.598;7.668;2023-01-05T17:26:16;25.90;;;6.97;;
29382;SDS011;16365;51.598;7.668;2023-01-05T17:28:49;31.50;;;7.30;;
29382;SDS011;16365;51.598;7.668;2023-01-05T17:31:23;29.35;;;7.07;;
29382;SDS011;16365;51.598;7.668;2023-01-05T17:33:50;23.55;;;5.82;;
29382;SDS011;16365;51.598;7.668;2023-01-05T17:36:21;41.10;;;8.07;;
29382;SDS011;16365;51.598;7.668;2023-01-05T17:38:55;26.90;;;9.05;;
29382;SDS011;16365;51.598;7.668;2023-01-05T17:41:25;31.65;;;7.30;;
29382;SDS011;16365;51.598;7.668;2023-01-05T17:43:54;33.35;;;8.18;;
29382;SDS011;16365;51.598;7.668;2023-01-05T17:46:29;32.70;;;7.20;;
29382;SDS011;16365;51.598;7.668;2023-01-05T17:48:58;31.10;;;8.60;;
29382;SDS011;16365;51.598;7.668;2023-01-05T17:51:26;32.88;;;8.90;;
29382;SDS011;16365;51.598;7.668;2023-01-05T17:53:57;38.50;;;10.20;;